createdAt,value
2023-05-20T00:01:12.361Z,1.95
2023-05-20T00:03:40.669Z,2.17
2023-05-20T00:06:09.070Z,1.60
2023-05-20T00:08:37.263Z,1.63
2023-05-20T00:11:05.421Z,1.65
2023-05-20T00:13:36.072Z,2.00
2023-05-20T00:16:04.398Z,1.50
2023-05-20T00:18:32.796Z,1.88
2023-05-20T00:21:00.953Z,1.58
2023-05-20T00:23:29.091Z,2.00
2023-05-20T00:25:59.835Z,2.08
2023-05-20T00:28:28.798Z,1.77
2023-05-20T00:30:58.466Z,1.90
2023-05-20T00:33:26.631Z,2.00
2023-05-20T00:35:54.758Z,2.08
2023-05-20T00:38:22.933Z,2.28
2023-05-20T00:40:51.107Z,2.20
2023-05-20T00:43:20.475Z,2.03
2023-05-20T00:45:48.825Z,1.83
2023-05-20T00:48:18.426Z,1.77
2023-05-20T00:50:46.634Z,1.90
2023-05-20T00:53:15.498Z,1.92
2023-05-20T00:55:43.764Z,2.00
2023-05-20T00:58:12.577Z,2.03
2023-05-20T01:00:40.844Z,1.70
2023-05-20T01:03:09.477Z,1.70
2023-05-20T01:05:41.455Z,1.92
2023-05-20T01:08:11.734Z,2.33
2023-05-20T01:10:43.730Z,2.30
2023-05-20T01:13:16.732Z,1.98
2023-05-20T01:15:48.554Z,2.53
2023-05-20T01:18:18.572Z,2.28
2023-05-20T01:20:50.975Z,1.98
2023-05-20T01:23:20.466Z,1.80
2023-05-20T01:25:48.606Z,2.03
2023-05-20T01:28:18.032Z,2.03
2023-05-20T01:30:51.973Z,2.67
2023-05-20T01:33:23.387Z,2.30
2023-05-20T01:35:51.702Z,2.45
2023-05-20T01:38:21.724Z,2.53
2023-05-20T01:40:50.841Z,2.60
2023-05-20T01:43:19.615Z,2.40
2023-05-20T01:45:48.220Z,2.08
2023-05-20T01:48:16.888Z,2.55
2023-05-20T01:50:45.064Z,2.58
2023-05-20T01:53:13.419Z,2.35
2023-05-20T01:55:42.893Z,2.72
2023-05-20T01:58:11.081Z,2.40
2023-05-20T02:00:39.227Z,2.50
2023-05-20T02:03:07.424Z,2.60
2023-05-20T02:05:35.819Z,2.30
2023-05-20T02:08:04.280Z,2.38
2023-05-20T02:10:32.390Z,2.20
2023-05-20T02:13:01.901Z,2.30
2023-05-20T02:15:30.042Z,2.20
2023-05-20T02:17:58.678Z,2.42
2023-05-20T02:20:26.966Z,2.45
2023-05-20T02:22:55.435Z,2.08
2023-05-20T02:25:23.512Z,2.72
2023-05-20T02:27:51.628Z,2.53
2023-05-20T02:30:21.387Z,2.38
2023-05-20T02:32:49.564Z,2.42
2023-05-20T02:35:17.900Z,2.30
2023-05-20T02:37:48.345Z,2.42
2023-05-20T02:40:16.712Z,2.53
2023-05-20T02:42:45.028Z,2.95
2023-05-20T02:45:13.192Z,2.20
2023-05-20T02:47:42.717Z,2.67
2023-05-20T02:50:11.360Z,2.72
2023-05-20T02:52:40.011Z,2.97
2023-05-20T02:55:08.941Z,2.60
2023-05-20T02:57:38.351Z,2.70
2023-05-20T03:00:09.188Z,2.42
2023-05-20T03:02:37.724Z,2.80
2023-05-20T03:05:08.209Z,3.00
2023-05-20T03:07:37.216Z,2.45
2023-05-20T03:10:06.646Z,2.58
2023-05-20T03:12:34.831Z,2.83
2023-05-20T03:15:03.717Z,2.65
2023-05-20T03:17:31.988Z,2.45
2023-05-20T03:20:01.329Z,2.80
2023-05-20T03:22:30.932Z,3.00
2023-05-20T03:25:00.453Z,3.03
2023-05-20T03:27:28.559Z,3.20
2023-05-20T03:29:56.630Z,2.55
2023-05-20T03:32:24.773Z,2.65
2023-05-20T03:34:52.880Z,2.72
2023-05-20T03:37:21.010Z,2.90
2023-05-20T03:39:50.497Z,2.85
2023-05-20T03:42:18.734Z,3.45
2023-05-20T03:44:46.893Z,3.08
2023-05-20T03:47:15.172Z,3.10
2023-05-20T03:49:43.311Z,2.90
2023-05-20T03:52:11.406Z,2.70
2023-05-20T03:54:39.510Z,2.80
2023-05-20T03:57:10.506Z,2.45
2023-05-20T03:59:38.745Z,2.83
2023-05-20T04:02:07.408Z,2.78
2023-05-20T04:04:36.194Z,2.65
2023-05-20T04:07:05.060Z,2.95
2023-05-20T04:09:33.212Z,2.95
2023-05-20T04:12:01.320Z,3.15
2023-05-20T04:14:32.638Z,2.97
2023-05-20T04:17:02.653Z,3.53
2023-05-20T04:19:30.883Z,2.92
2023-05-20T04:21:59.015Z,2.70
2023-05-20T04:24:27.886Z,3.00
2023-05-20T04:26:56.042Z,2.92
2023-05-20T04:29:24.229Z,2.97
2023-05-20T04:31:53.856Z,2.90
2023-05-20T04:34:27.043Z,3.25
2023-05-20T04:36:55.274Z,3.20
2023-05-20T04:39:23.355Z,3.28
2023-05-20T04:41:54.742Z,3.55
2023-05-20T04:44:24.727Z,3.38
2023-05-20T04:46:54.270Z,3.20
2023-05-20T04:49:22.468Z,3.58
2023-05-20T04:51:51.922Z,3.47
2023-05-20T04:54:20.338Z,3.60
2023-05-20T04:56:48.761Z,3.67
2023-05-20T04:59:16.847Z,3.30
2023-05-20T05:01:45.132Z,3.72
2023-05-20T05:04:14.661Z,3.67
2023-05-20T05:06:42.859Z,4.10
2023-05-20T05:09:11.035Z,3.63
2023-05-20T05:11:42.181Z,3.70
2023-05-20T05:14:10.346Z,3.92
2023-05-20T05:16:38.469Z,4.35
2023-05-20T05:19:07.309Z,4.25
2023-05-20T05:21:36.897Z,4.50
2023-05-20T05:24:05.141Z,4.22
2023-05-20T05:26:33.262Z,4.13
2023-05-20T05:29:01.376Z,4.03
2023-05-20T05:31:29.536Z,4.75
2023-05-20T05:33:57.620Z,4.78
2023-05-20T05:36:26.608Z,4.93
2023-05-20T05:38:56.086Z,4.97
2023-05-20T05:41:24.175Z,5.63
2023-05-20T05:43:52.258Z,4.80
2023-05-20T05:46:20.522Z,5.28
2023-05-20T05:48:50.914Z,5.82
2023-05-20T05:51:19.163Z,5.57
2023-05-20T05:53:47.326Z,4.65
2023-05-20T05:56:16.879Z,5.55
2023-05-20T05:58:45.870Z,4.90
2023-05-20T06:01:14.053Z,5.90
2023-05-20T06:03:42.268Z,6.05
2023-05-20T06:06:10.409Z,6.60
2023-05-20T06:08:38.687Z,6.00
2023-05-20T06:11:06.936Z,6.22
2023-05-20T06:13:37.358Z,6.80
2023-05-20T06:16:06.097Z,6.03
2023-05-20T06:18:34.253Z,7.22
2023-05-20T06:21:02.397Z,6.72
2023-05-20T06:23:30.624Z,7.22
2023-05-20T06:25:59.811Z,6.85
2023-05-20T06:28:28.063Z,6.38
2023-05-20T06:30:58.337Z,6.38
2023-05-20T06:33:27.430Z,6.85
2023-05-20T06:35:56.871Z,5.85
2023-05-20T06:38:24.998Z,7.05
2023-05-20T06:40:53.133Z,6.25
2023-05-20T06:43:21.263Z,6.53
2023-05-20T06:45:50.746Z,6.40
2023-05-20T06:48:20.385Z,7.25
2023-05-20T06:50:48.506Z,6.43
2023-05-20T06:53:17.013Z,6.65
2023-05-20T06:55:45.118Z,6.82
2023-05-20T06:58:13.237Z,6.13
2023-05-20T07:00:41.623Z,7.38
2023-05-20T07:03:11.749Z,7.03
2023-05-20T07:05:44.341Z,8.02
2023-05-20T07:08:12.503Z,6.87
2023-05-20T07:10:41.034Z,6.93
2023-05-20T07:13:09.256Z,6.93
2023-05-20T07:15:37.748Z,7.15
2023-05-20T07:18:05.910Z,6.78
2023-05-20T07:20:34.088Z,6.80
2023-05-20T07:23:04.216Z,7.55
2023-05-20T07:25:32.435Z,7.50
2023-05-20T07:28:00.715Z,7.80
2023-05-20T07:30:29.380Z,7.13
2023-05-20T07:32:57.511Z,7.20
2023-05-20T07:35:25.648Z,8.32
2023-05-20T07:37:53.766Z,7.70
2023-05-20T07:40:23.460Z,9.02
2023-05-20T07:42:51.558Z,7.70
2023-05-20T07:45:20.195Z,7.95
2023-05-20T07:47:48.406Z,7.65
2023-05-20T07:50:17.039Z,7.85
2023-05-20T07:52:56.035Z,7.32
2023-05-20T07:55:26.522Z,7.40
2023-05-20T07:57:54.851Z,7.72
2023-05-20T08:00:23.145Z,8.25
2023-05-20T08:02:51.430Z,7.65
2023-05-20T08:05:19.802Z,7.75
2023-05-20T08:07:47.940Z,7.80
2023-05-20T08:10:16.131Z,7.28
2023-05-20T08:12:45.649Z,8.07
2023-05-20T08:15:14.134Z,8.98
2023-05-20T08:17:42.315Z,7.75
2023-05-20T08:20:12.779Z,7.97
2023-05-20T08:22:41.429Z,8.48
2023-05-20T08:25:10.780Z,8.55
2023-05-20T08:27:38.928Z,8.60
2023-05-20T08:30:10.059Z,7.95
2023-05-20T08:32:38.514Z,7.90
2023-05-20T08:35:08.123Z,8.02
2023-05-20T08:37:36.548Z,7.13
2023-05-20T08:40:06.573Z,8.35
2023-05-20T08:42:34.809Z,7.82
2023-05-20T08:45:04.129Z,8.20
2023-05-20T08:47:33.913Z,7.97
2023-05-20T08:50:02.145Z,7.50
2023-05-20T08:52:35.076Z,7.60
2023-05-20T08:55:04.292Z,7.95
2023-05-20T08:57:34.042Z,7.40
2023-05-20T09:00:02.233Z,7.13
2023-05-20T09:02:30.440Z,7.82
2023-05-20T09:05:00.004Z,6.72
2023-05-20T09:07:28.924Z,7.38
2023-05-20T09:09:57.038Z,8.00
2023-05-20T09:12:25.432Z,7.20
2023-05-20T09:14:53.548Z,7.50
2023-05-20T09:17:23.075Z,7.03
2023-05-20T09:19:51.825Z,7.38
2023-05-20T09:22:25.122Z,6.63
2023-05-20T09:27:21.858Z,5.80
2023-05-20T09:29:49.973Z,6.45
2023-05-20T09:32:18.486Z,7.18
2023-05-20T09:34:48.698Z,6.22
2023-05-20T09:37:19.493Z,5.82
2023-05-20T09:39:59.601Z,6.00
2023-05-20T09:42:29.582Z,6.00
2023-05-20T09:44:59.191Z,6.38
2023-05-20T09:47:28.178Z,6.47
2023-05-20T09:49:56.647Z,7.07
2023-05-20T09:52:25.677Z,6.82
2023-05-20T09:54:57.422Z,7.07
2023-05-20T09:57:26.507Z,6.03
2023-05-20T09:59:55.192Z,6.45
2023-05-20T10:02:23.438Z,7.03
2023-05-20T10:04:54.411Z,6.53
2023-05-20T10:07:42.502Z,6.78
2023-05-20T10:10:23.649Z,6.80
2023-05-20T10:13:00.178Z,6.78
2023-05-20T10:15:42.848Z,6.90
2023-05-20T10:18:20.246Z,7.13
2023-05-20T10:20:48.929Z,7.25
2023-05-20T10:23:29.186Z,7.90
2023-05-20T10:25:59.783Z,7.35
2023-05-20T10:28:32.935Z,7.95
2023-05-20T10:31:01.677Z,7.60
2023-05-20T10:33:30.673Z,6.63
2023-05-20T10:36:01.160Z,7.90
2023-05-20T10:38:29.286Z,8.13
2023-05-20T10:41:11.252Z,7.18
2023-05-20T10:43:39.400Z,8.00
2023-05-20T10:46:13.702Z,7.10
2023-05-20T10:48:49.842Z,7.53
2023-05-20T10:51:18.062Z,7.70
2023-05-20T10:53:47.806Z,6.95
2023-05-20T10:56:21.467Z,7.65
2023-05-20T10:58:49.683Z,7.90
2023-05-20T11:01:19.146Z,7.45
2023-05-20T11:03:48.253Z,7.55
2023-05-20T11:06:18.850Z,7.72
2023-05-20T11:08:47.628Z,7.50
2023-05-20T11:11:16.482Z,8.38
2023-05-20T11:13:47.078Z,8.30
2023-05-20T11:16:15.261Z,8.30
2023-05-20T11:18:43.615Z,7.88
2023-05-20T11:21:12.260Z,7.68
2023-05-20T11:23:40.867Z,7.85
2023-05-20T11:26:09.162Z,7.65
2023-05-20T11:28:37.729Z,8.88
2023-05-20T11:31:07.857Z,8.20
2023-05-20T11:33:35.963Z,8.85
2023-05-20T11:36:08.622Z,8.55
2023-05-20T11:38:43.013Z,8.57
2023-05-20T11:41:12.061Z,8.10
2023-05-20T11:43:42.744Z,8.23
2023-05-20T11:46:12.474Z,9.38
2023-05-20T11:48:42.075Z,9.32
2023-05-20T11:51:10.266Z,8.90
2023-05-20T11:53:42.314Z,7.65
2023-05-20T11:56:10.629Z,8.30
2023-05-20T11:58:38.736Z,8.45
2023-05-20T12:01:20.935Z,8.73
2023-05-20T12:03:51.664Z,8.00
2023-05-20T12:06:20.309Z,7.90
2023-05-20T12:08:49.563Z,8.05
2023-05-20T12:11:17.764Z,7.47
2023-05-20T12:13:45.885Z,7.88
2023-05-20T12:16:14.048Z,8.88
2023-05-20T12:18:42.358Z,8.88
2023-05-20T12:21:12.338Z,9.25
2023-05-20T12:23:40.431Z,8.35
2023-05-20T12:26:08.657Z,8.65
2023-05-20T12:28:40.340Z,9.10
2023-05-20T12:31:08.614Z,8.20
2023-05-20T12:33:36.851Z,7.82
2023-05-20T12:36:05.307Z,8.60
2023-05-20T12:38:34.807Z,7.53
2023-05-20T12:41:03.086Z,7.97
2023-05-20T12:43:31.245Z,7.70
2023-05-20T12:45:59.445Z,7.85
2023-05-20T12:48:27.680Z,7.75
2023-05-20T12:50:55.806Z,8.15
2023-05-20T12:53:23.934Z,7.10
2023-05-20T12:55:53.717Z,7.20
2023-05-20T12:58:21.955Z,7.20
2023-05-20T13:00:50.281Z,6.82
2023-05-20T13:03:18.595Z,6.93
2023-05-20T13:05:46.971Z,7.43
2023-05-20T13:08:15.179Z,6.82
2023-05-20T13:10:43.408Z,7.22
2023-05-20T13:13:13.987Z,7.20
2023-05-20T13:15:42.497Z,7.32
2023-05-20T13:18:11.140Z,6.93
2023-05-20T13:20:39.380Z,7.03
2023-05-20T13:23:08.159Z,6.88
2023-05-20T13:25:36.784Z,7.80
2023-05-20T13:28:06.807Z,7.10
2023-05-20T13:30:36.757Z,6.55
2023-05-20T13:33:06.613Z,6.47
2023-05-20T13:35:35.721Z,7.28
2023-05-20T13:38:04.007Z,6.85
2023-05-20T13:40:32.205Z,6.85
2023-05-20T13:43:00.436Z,7.47
2023-05-20T13:45:29.667Z,6.82
2023-05-20T13:47:59.384Z,6.70
2023-05-20T13:50:27.697Z,6.60
2023-05-20T13:52:55.846Z,5.72
2023-05-20T13:55:24.873Z,6.63
2023-05-20T13:57:54.352Z,7.00
2023-05-20T14:00:22.765Z,7.18
2023-05-20T14:02:51.069Z,7.18
2023-05-20T14:05:20.651Z,6.78
2023-05-20T14:07:48.726Z,6.70
2023-05-20T14:10:16.907Z,7.28
2023-05-20T14:12:48.178Z,7.45
2023-05-20T14:15:16.610Z,8.00
2023-05-20T14:17:44.825Z,7.60
2023-05-20T14:20:13.538Z,6.90
2023-05-20T14:22:43.314Z,7.00
2023-05-20T14:25:11.420Z,8.77
2023-05-20T14:27:39.533Z,8.05
2023-05-20T14:30:09.178Z,7.80
2023-05-20T14:32:37.408Z,7.90
2023-05-20T14:35:06.168Z,8.13
2023-05-20T14:37:34.270Z,8.13
2023-05-20T14:40:08.272Z,7.82
2023-05-20T14:42:37.156Z,7.63
2023-05-20T14:45:05.967Z,8.07
2023-05-20T14:47:34.283Z,8.00
2023-05-20T14:50:02.587Z,7.68
2023-05-20T14:52:30.779Z,7.72
2023-05-20T14:54:58.910Z,7.40
2023-05-20T14:57:28.454Z,7.90
2023-05-20T14:59:56.771Z,7.30
2023-05-20T15:02:24.908Z,7.63
2023-05-20T15:04:53.014Z,7.65
2023-05-20T15:07:21.387Z,7.65
2023-05-20T15:09:50.021Z,7.43
2023-05-20T15:12:18.140Z,8.93
2023-05-20T15:14:47.627Z,8.05
2023-05-20T15:17:16.357Z,7.57
2023-05-20T15:19:44.469Z,8.07
2023-05-20T15:22:12.599Z,8.32
2023-05-20T15:24:40.754Z,7.30
2023-05-20T15:27:09.165Z,7.20
2023-05-20T15:29:38.914Z,8.43
2023-05-20T15:32:10.505Z,8.18
2023-05-20T15:34:38.875Z,8.35
2023-05-20T15:37:07.195Z,7.72
2023-05-20T15:39:38.621Z,7.75
2023-05-20T15:42:07.578Z,7.88
2023-05-20T15:44:36.543Z,9.40
2023-05-20T15:47:05.795Z,9.13
2023-05-20T15:49:35.404Z,8.45
2023-05-20T15:52:04.410Z,8.48
2023-05-20T15:54:33.009Z,8.70
2023-05-20T15:57:01.193Z,9.05
2023-05-20T15:59:29.347Z,8.55
2023-05-20T16:01:57.484Z,8.43
2023-05-20T16:04:25.866Z,9.40
2023-05-20T16:06:55.482Z,9.30
2023-05-20T16:09:23.689Z,9.35
2023-05-20T16:11:51.840Z,8.60
2023-05-20T16:14:19.947Z,9.13
2023-05-20T16:16:48.231Z,8.60
2023-05-20T16:19:16.937Z,9.20
2023-05-20T16:21:46.062Z,8.13
2023-05-20T16:24:16.497Z,9.55
2023-05-20T16:26:44.608Z,9.63
2023-05-20T16:29:14.295Z,8.68
2023-05-20T16:31:46.471Z,9.43
2023-05-20T16:34:15.089Z,10.18
2023-05-20T16:36:45.079Z,9.50
2023-05-20T16:39:13.398Z,10.60
2023-05-20T16:41:43.302Z,10.35
2023-05-20T16:44:11.569Z,10.48
2023-05-20T16:46:40.168Z,10.32
2023-05-20T16:49:08.528Z,15.43
2023-05-20T16:51:36.685Z,13.10
2023-05-20T16:54:04.976Z,24.67
2023-05-20T16:56:33.450Z,25.15
2023-05-20T16:59:02.962Z,24.60
2023-05-20T17:01:31.155Z,29.02
2023-05-20T17:03:59.514Z,15.70
2023-05-20T17:06:27.710Z,33.78
2023-05-20T17:08:56.627Z,26.80
2023-05-20T17:11:24.779Z,17.73
2023-05-20T17:13:53.111Z,10.85
2023-05-20T17:16:22.683Z,11.02
2023-05-20T17:18:50.814Z,11.68
2023-05-20T17:21:20.411Z,10.43
2023-05-20T17:23:48.535Z,11.10
2023-05-20T17:26:17.132Z,10.85
2023-05-20T17:28:46.457Z,10.55
2023-05-20T17:31:15.104Z,12.55
2023-05-20T17:33:44.678Z,11.38
2023-05-20T17:36:13.743Z,10.68
2023-05-20T17:38:41.846Z,13.13
2023-05-20T17:41:12.541Z,11.52
2023-05-20T17:43:40.730Z,12.45
2023-05-20T17:46:08.955Z,11.18
2023-05-20T17:48:37.106Z,16.90
2023-05-20T17:51:07.160Z,15.48
2023-05-20T17:53:35.383Z,16.13
2023-05-20T17:56:03.513Z,11.48
2023-05-20T17:58:33.846Z,11.45
2023-05-20T18:01:02.310Z,11.38
2023-05-20T18:03:30.607Z,11.93
2023-05-20T18:05:58.776Z,11.68
2023-05-20T18:08:28.401Z,11.43
2023-05-20T18:10:56.734Z,11.07
2023-05-20T18:13:25.167Z,11.23
2023-05-20T18:15:53.318Z,11.05
2023-05-20T18:18:21.518Z,10.57
2023-05-20T18:20:49.684Z,10.43
2023-05-20T18:23:18.296Z,10.45
2023-05-20T18:25:48.210Z,10.93
2023-05-20T18:28:16.602Z,10.32
2023-05-20T18:30:44.774Z,11.85
2023-05-20T18:33:13.719Z,10.48
2023-05-20T18:35:41.987Z,11.10
2023-05-20T18:38:10.087Z,10.30
2023-05-20T18:40:38.320Z,11.00
2023-05-20T18:43:08.092Z,11.07
2023-05-20T18:45:36.298Z,10.85
2023-05-20T18:48:05.182Z,11.23
2023-05-20T18:50:36.169Z,10.15
2023-05-20T18:53:04.648Z,10.88
2023-05-20T18:55:32.771Z,10.82
2023-05-20T18:58:00.915Z,10.75
2023-05-20T19:00:30.432Z,9.68
2023-05-20T19:02:59.008Z,10.73
2023-05-20T19:05:27.217Z,9.70
2023-05-20T19:07:55.498Z,9.75
2023-05-20T19:10:23.796Z,9.07
2023-05-20T19:12:51.918Z,10.20
2023-05-20T19:15:20.021Z,10.25
2023-05-20T19:17:49.687Z,10.80
2023-05-20T19:20:17.969Z,10.57
2023-05-20T19:22:46.191Z,9.63
2023-05-20T19:25:14.344Z,10.13
2023-05-20T19:27:42.536Z,10.20
2023-05-20T19:30:11.486Z,10.68
2023-05-20T19:32:40.221Z,10.13
2023-05-20T19:35:10.565Z,10.02
2023-05-20T19:37:38.727Z,10.98
2023-05-20T19:40:08.067Z,9.93
2023-05-20T19:42:36.396Z,10.52
2023-05-20T19:45:05.371Z,10.32
2023-05-20T19:47:33.519Z,10.77
2023-05-20T19:50:01.675Z,10.40
2023-05-20T19:52:32.161Z,10.90
2023-05-20T19:55:01.420Z,10.95
2023-05-20T19:57:29.552Z,10.48
2023-05-20T20:00:00.558Z,11.30
2023-05-20T20:02:28.694Z,11.40
2023-05-20T20:04:56.893Z,10.50
2023-05-20T20:07:25.943Z,11.95
2023-05-20T20:09:56.829Z,10.98
2023-05-20T20:12:25.087Z,10.73
2023-05-20T20:14:53.365Z,9.63
2023-05-20T20:17:23.428Z,9.75
2023-05-20T20:19:53.957Z,10.80
2023-05-20T20:22:22.381Z,10.90
2023-05-20T20:24:51.002Z,10.50
2023-05-20T20:27:23.839Z,10.45
2023-05-20T20:29:52.736Z,10.48
2023-05-20T20:32:21.204Z,9.88
2023-05-20T20:34:49.594Z,10.35
2023-05-20T20:37:17.892Z,10.40
2023-05-20T20:39:46.807Z,10.38
2023-05-20T20:42:14.938Z,10.23
2023-05-20T20:44:48.427Z,10.43
2023-05-20T20:47:16.877Z,9.88
2023-05-20T20:49:45.007Z,10.02
2023-05-20T20:52:13.150Z,10.45
2023-05-20T20:54:43.334Z,9.82
2023-05-20T20:57:13.923Z,11.52
2023-05-20T20:59:50.193Z,9.30
2023-05-20T21:02:20.793Z,10.48
2023-05-20T21:04:48.907Z,10.48
2023-05-20T21:07:18.297Z,10.68
2023-05-20T21:09:46.656Z,10.98
2023-05-20T21:12:14.773Z,9.48
2023-05-20T21:14:44.268Z,9.88
2023-05-20T21:17:12.431Z,10.25
2023-05-20T21:19:42.015Z,9.82
2023-05-20T21:22:10.096Z,9.27
2023-05-20T21:24:38.221Z,9.68
2023-05-20T21:27:06.817Z,10.63
2023-05-20T21:29:35.277Z,9.77
2023-05-20T21:32:03.378Z,11.10
2023-05-20T21:34:31.617Z,9.93
2023-05-20T21:37:01.101Z,9.65
2023-05-20T21:39:29.173Z,10.20
2023-05-20T21:41:57.236Z,9.55
2023-05-20T21:44:25.453Z,9.98
2023-05-20T21:46:53.644Z,9.82
2023-05-20T21:49:21.771Z,10.00
2023-05-20T21:51:50.171Z,10.38
2023-05-20T21:54:19.624Z,9.48
2023-05-20T21:56:47.786Z,9.80
2023-05-20T21:59:15.887Z,9.73
2023-05-20T22:01:45.099Z,10.13
2023-05-20T22:04:13.332Z,10.50
2023-05-20T22:06:41.672Z,10.45
2023-05-20T22:09:10.069Z,10.43
2023-05-20T22:11:39.552Z,10.35
2023-05-20T22:14:07.697Z,9.85
2023-05-20T22:16:36.063Z,9.75
2023-05-20T22:19:04.255Z,9.23
2023-05-20T22:21:39.671Z,9.75
2023-05-20T22:24:16.078Z,9.32
2023-05-20T22:26:45.748Z,10.82
2023-05-20T22:29:13.930Z,9.73
2023-05-20T22:31:42.063Z,9.70
2023-05-20T22:34:10.246Z,10.50
2023-05-20T22:36:39.363Z,10.10
2023-05-20T22:39:07.555Z,9.85
2023-05-20T22:41:35.627Z,9.43
2023-05-20T22:44:05.430Z,10.13
2023-05-20T22:46:33.557Z,10.45
2023-05-20T22:49:01.808Z,9.68
2023-05-20T22:51:31.272Z,9.23
2023-05-20T22:53:59.351Z,9.45
2023-05-20T22:56:27.433Z,9.82
2023-05-20T22:58:55.510Z,9.98
2023-05-20T23:01:25.023Z,10.48
2023-05-20T23:03:53.689Z,9.43
2023-05-20T23:06:22.979Z,10.40
2023-05-20T23:08:51.167Z,10.05
2023-05-20T23:11:19.565Z,9.85
2023-05-20T23:13:47.657Z,9.60
2023-05-20T23:16:17.651Z,9.30
2023-05-20T23:18:47.575Z,9.75
2023-05-20T23:21:15.956Z,9.30
2023-05-20T23:23:44.067Z,10.05
2023-05-20T23:26:12.287Z,10.05
2023-05-20T23:28:40.858Z,9.63
2023-05-20T23:31:09.263Z,10.10
2023-05-20T23:33:37.477Z,9.52
2023-05-20T23:36:09.252Z,9.82
2023-05-20T23:38:37.450Z,9.43
2023-05-20T23:41:05.996Z,11.90
2023-05-20T23:43:34.062Z,9.85
2023-05-20T23:46:02.269Z,9.95
2023-05-20T23:48:30.490Z,9.30
2023-05-20T23:50:58.629Z,9.77
2023-05-20T23:53:28.076Z,10.07
2023-05-20T23:55:56.297Z,9.32
2023-05-20T23:58:24.619Z,9.45
